createdAt,value
2022-09-03T00:02:39.745Z,16.43
2022-09-03T00:05:35.695Z,16.15
2022-09-03T00:08:33.670Z,16.25
2022-09-03T00:11:28.929Z,16.19
2022-09-03T00:14:27.799Z,16.25
2022-09-03T00:17:18.903Z,16.24
2022-09-03T00:20:15.607Z,16.01
2022-09-03T00:23:10.659Z,16.07
2022-09-03T00:26:22.941Z,16.07
2022-09-03T00:29:21.537Z,16.14
2022-09-03T00:32:20.481Z,16.14
2022-09-03T00:35:17.194Z,16.23
2022-09-03T00:38:06.385Z,16.06
2022-09-03T00:41:31.627Z,16.11
2022-09-03T00:44:48.558Z,16.22
2022-09-03T00:48:02.503Z,16.24
2022-09-03T00:51:01.166Z,16.24
2022-09-03T00:53:57.727Z,16.24
2022-09-03T00:56:55.955Z,16.10
2022-09-03T01:00:15.689Z,16.16
2022-09-03T01:03:34.140Z,16.17
2022-09-03T01:07:02.317Z,16.18
2022-09-03T01:10:08.117Z,16.27
2022-09-03T01:13:14.459Z,16.16
2022-09-03T01:16:07.590Z,16.11
2022-09-03T01:19:13.588Z,15.98
2022-09-03T01:22:21.191Z,16.16
2022-09-03T01:25:22.727Z,16.18
2022-09-03T01:28:24.238Z,16.30
2022-09-03T01:31:38.115Z,16.21
2022-09-03T01:34:54.035Z,15.99
2022-09-03T01:38:05.702Z,16.23
2022-09-03T01:41:36.933Z,16.13
2022-09-03T01:45:02.965Z,16.20
2022-09-03T01:48:06.306Z,16.22
2022-09-03T01:51:02.685Z,16.23
2022-09-03T01:54:10.919Z,15.73
2022-09-03T01:57:42.952Z,16.32
2022-09-03T02:00:33.565Z,16.31
2022-09-03T02:03:22.015Z,16.24
2022-09-03T02:06:12.380Z,16.31
2022-09-03T02:09:00.108Z,16.24
2022-09-03T02:11:59.855Z,16.12
2022-09-03T02:14:47.809Z,15.96
2022-09-03T02:17:36.854Z,16.18
2022-09-03T02:20:29.636Z,16.15
2022-09-03T02:23:17.295Z,16.08
2022-09-03T02:26:11.755Z,16.12
2022-09-03T02:28:59.608Z,16.00
2022-09-03T02:31:47.839Z,16.17
2022-09-03T02:34:35.668Z,16.07
2022-09-03T02:37:23.726Z,16.13
2022-09-03T02:40:12.237Z,16.06
2022-09-03T02:43:00.446Z,16.18
2022-09-03T02:45:52.971Z,16.14
2022-09-03T02:48:40.762Z,16.14
2022-09-03T02:51:33.253Z,15.91
2022-09-03T02:54:21.258Z,16.16
2022-09-03T02:57:10.553Z,16.17
2022-09-03T02:59:58.930Z,16.19
2022-09-03T03:02:47.233Z,16.22
2022-09-03T03:05:58.181Z,16.14
2022-09-03T03:08:45.775Z,16.04
2022-09-03T03:11:33.548Z,16.14
2022-09-03T03:14:22.704Z,16.10
2022-09-03T03:17:10.582Z,15.83
2022-09-03T03:19:58.378Z,16.10
2022-09-03T03:22:46.036Z,16.09
2022-09-03T03:25:35.408Z,16.08
2022-09-03T03:28:23.173Z,16.09
2022-09-03T03:31:16.690Z,16.01
2022-09-03T03:34:04.386Z,15.98
2022-09-03T03:36:54.760Z,16.16
2022-09-03T03:39:42.623Z,15.98
2022-09-03T03:42:35.865Z,16.04
2022-09-03T03:45:26.211Z,16.12
2022-09-03T03:48:13.743Z,16.09
2022-09-03T03:51:04.486Z,16.05
2022-09-03T03:54:00.198Z,16.00
2022-09-03T03:56:55.733Z,16.02
2022-09-03T03:59:43.551Z,16.10
2022-09-03T04:02:33.350Z,15.99
2022-09-03T04:05:23.279Z,15.98
2022-09-03T04:08:12.717Z,15.90
2022-09-03T04:11:02.154Z,16.02
2022-09-03T04:13:51.204Z,15.80
2022-09-03T04:16:38.888Z,15.92
2022-09-03T04:19:32.321Z,15.89
2022-09-03T04:22:20.971Z,15.92
2022-09-03T04:25:09.427Z,15.86
2022-09-03T04:27:57.129Z,16.05
2022-09-03T04:30:44.921Z,15.99
2022-09-03T04:33:40.059Z,16.19
2022-09-03T04:36:30.496Z,16.11
2022-09-03T04:39:18.257Z,16.19
2022-09-03T04:42:07.960Z,16.07
2022-09-03T04:44:58.484Z,16.17
2022-09-03T04:48:16.250Z,16.18
2022-09-03T04:51:08.373Z,16.20
2022-09-03T04:53:59.163Z,16.12
2022-09-03T04:56:47.149Z,16.07
2022-09-03T04:59:39.092Z,16.23
2022-09-03T05:02:27.300Z,16.23
2022-09-03T05:05:16.011Z,16.28
2022-09-03T05:08:04.499Z,16.35
2022-09-03T05:11:01.326Z,16.30
2022-09-03T05:13:50.432Z,16.38
2022-09-03T05:16:39.227Z,16.34
2022-09-03T05:19:29.307Z,16.48
2022-09-03T05:22:21.500Z,16.29
2022-09-03T05:25:09.227Z,16.36
2022-09-03T05:27:58.001Z,16.21
2022-09-03T05:30:45.707Z,16.22
2022-09-03T05:33:43.035Z,16.22
2022-09-03T05:36:36.644Z,16.28
2022-09-03T05:39:27.748Z,16.25
2022-09-03T05:42:21.428Z,16.36
2022-09-03T05:45:13.332Z,16.49
2022-09-03T05:48:04.034Z,16.62
2022-09-03T05:51:02.443Z,16.42
2022-09-03T05:53:50.094Z,16.59
2022-09-03T05:56:40.416Z,16.43
2022-09-03T05:59:32.197Z,16.52
2022-09-03T06:02:23.153Z,16.63
2022-09-03T06:05:13.597Z,16.71
2022-09-03T06:08:01.519Z,16.84
2022-09-03T06:10:49.757Z,16.78
2022-09-03T06:13:37.813Z,16.82
2022-09-03T06:16:30.524Z,16.78
2022-09-03T06:19:19.941Z,16.80
2022-09-03T06:22:10.111Z,16.89
2022-09-03T06:25:00.452Z,17.04
2022-09-03T06:27:49.629Z,17.07
2022-09-03T06:30:37.639Z,17.07
2022-09-03T06:33:25.463Z,17.16
2022-09-03T06:36:24.454Z,17.15
2022-09-03T06:39:12.375Z,17.30
2022-09-03T06:42:00.172Z,17.16
2022-09-03T06:44:56.303Z,17.28
2022-09-03T06:47:44.171Z,17.40
2022-09-03T06:50:36.122Z,17.38
2022-09-03T06:53:32.059Z,17.50
2022-09-03T06:56:27.218Z,17.55
2022-09-03T06:59:15.634Z,17.53
2022-09-03T07:02:04.148Z,17.64
2022-09-03T07:04:51.930Z,17.57
2022-09-03T07:07:41.843Z,17.60
2022-09-03T07:10:32.678Z,17.66
2022-09-03T07:13:21.112Z,17.55
2022-09-03T07:16:11.713Z,17.57
2022-09-03T07:19:01.170Z,17.73
2022-09-03T07:21:50.595Z,17.73
2022-09-03T07:24:38.663Z,17.88
2022-09-03T07:27:26.784Z,17.99
2022-09-03T07:30:14.624Z,17.94
2022-09-03T07:33:07.495Z,17.94
2022-09-03T07:35:55.073Z,17.94
2022-09-03T07:38:47.798Z,18.12
2022-09-03T07:41:38.230Z,18.03
2022-09-03T07:44:29.224Z,18.12
2022-09-03T07:47:23.296Z,17.96
2022-09-03T07:50:16.499Z,18.04
2022-09-03T07:53:04.240Z,18.05
2022-09-03T07:55:52.054Z,18.22
2022-09-03T07:58:41.978Z,18.65
2022-09-03T08:01:31.946Z,18.91
2022-09-03T08:04:20.810Z,18.90
2022-09-03T08:07:11.471Z,18.87
2022-09-03T08:10:01.530Z,18.67
2022-09-03T08:12:52.308Z,18.91
2022-09-03T08:15:43.612Z,19.02
2022-09-03T08:18:35.748Z,18.99
2022-09-03T08:21:26.459Z,18.77
2022-09-03T08:24:16.907Z,18.74
2022-09-03T08:27:05.365Z,18.96
2022-09-03T08:29:53.506Z,19.18
2022-09-03T08:32:42.696Z,19.03
2022-09-03T08:35:32.456Z,18.87
2022-09-03T08:38:20.429Z,18.87
2022-09-03T08:41:18.523Z,18.74
2022-09-03T08:44:28.156Z,18.78
2022-09-03T08:47:47.467Z,18.82
2022-09-03T08:50:51.848Z,19.08
2022-09-03T08:53:48.657Z,18.94
2022-09-03T08:56:40.229Z,19.03
2022-09-03T08:59:30.149Z,18.92
2022-09-03T09:02:39.056Z,19.05
2022-09-03T09:06:08.256Z,18.82
2022-09-03T09:08:58.741Z,18.71
2022-09-03T09:11:52.461Z,18.72
2022-09-03T09:15:10.883Z,18.64
2022-09-03T09:18:24.455Z,18.71
2022-09-03T09:21:27.728Z,18.60
2022-09-03T09:24:27.728Z,18.82
2022-09-03T09:27:17.497Z,18.66
2022-09-03T09:30:06.439Z,19.08
2022-09-03T09:32:54.080Z,18.99
2022-09-03T09:35:43.322Z,18.85
2022-09-03T09:38:37.157Z,18.72
2022-09-03T09:41:29.665Z,18.87
2022-09-03T09:44:21.789Z,18.89
2022-09-03T09:47:12.500Z,19.08
2022-09-03T09:50:02.853Z,19.06
2022-09-03T09:53:08.525Z,18.93
2022-09-03T09:56:03.144Z,19.07
2022-09-03T09:58:52.909Z,19.08
2022-09-03T10:01:45.088Z,18.79
2022-09-03T10:04:33.547Z,18.70
2022-09-03T10:07:33.230Z,18.13
2022-09-03T10:10:22.064Z,18.66
2022-09-03T10:13:19.560Z,18.86
2022-09-03T10:16:20.952Z,18.98
2022-09-03T10:19:36.945Z,19.37
2022-09-03T10:22:26.645Z,19.44
2022-09-03T10:25:21.344Z,18.97
2022-09-03T10:28:13.255Z,18.69
2022-09-03T10:31:25.155Z,18.57
2022-09-03T10:34:23.519Z,18.47
2022-09-03T10:37:31.327Z,18.32
2022-09-03T10:40:30.151Z,18.43
2022-09-03T10:43:52.254Z,18.43
2022-09-03T10:46:52.241Z,18.49
2022-09-03T10:49:50.503Z,18.39
2022-09-03T10:52:59.626Z,18.77
2022-09-03T10:56:40.123Z,18.76
2022-09-03T10:59:45.603Z,18.70
2022-09-03T11:02:51.248Z,18.82
2022-09-03T11:06:01.671Z,19.17
2022-09-03T11:09:06.809Z,19.26
2022-09-03T11:11:59.198Z,18.90
2022-09-03T11:14:54.119Z,19.21
2022-09-03T11:18:07.567Z,19.49
2022-09-03T11:21:08.819Z,20.11
2022-09-03T11:24:09.021Z,20.31
2022-09-03T11:27:17.251Z,20.23
2022-09-03T11:30:11.996Z,20.31
2022-09-03T11:33:06.678Z,20.54
2022-09-03T11:36:03.282Z,21.02
2022-09-03T11:38:53.488Z,21.08
2022-09-03T11:41:41.449Z,21.25
2022-09-03T11:44:51.048Z,21.31
2022-09-03T11:47:45.067Z,21.65
2022-09-03T11:53:33.439Z,21.31
2022-09-03T11:56:21.221Z,21.28
2022-09-03T11:59:15.489Z,21.36
2022-09-03T12:02:29.876Z,21.30
2022-09-03T12:05:36.702Z,21.12
2022-09-03T12:08:45.619Z,20.96
2022-09-03T12:12:15.192Z,20.50
2022-09-03T12:15:09.118Z,20.80
2022-09-03T12:18:22.964Z,21.33
2022-09-03T12:21:11.687Z,21.39
2022-09-03T12:24:03.395Z,21.09
2022-09-03T12:26:51.023Z,20.82
2022-09-03T12:29:58.226Z,20.94
2022-09-03T12:32:46.764Z,20.64
2022-09-03T12:39:09.870Z,20.99
2022-09-03T12:42:05.123Z,20.36
2022-09-03T12:44:53.620Z,20.73
2022-09-03T12:47:45.331Z,20.93
2022-09-03T12:50:35.597Z,21.15
2022-09-03T12:53:27.149Z,21.26
2022-09-03T12:56:16.858Z,21.39
2022-09-03T12:59:16.929Z,21.62
2022-09-03T13:02:23.556Z,21.69
2022-09-03T13:05:18.771Z,22.01
2022-09-03T13:08:09.911Z,22.20
2022-09-03T13:11:04.020Z,22.15
2022-09-03T13:14:10.432Z,21.96
2022-09-03T13:17:35.782Z,21.90
2022-09-03T13:20:40.611Z,21.68
2022-09-03T13:23:40.602Z,21.75
2022-09-03T13:26:49.780Z,22.23
2022-09-03T13:29:55.920Z,22.45
2022-09-03T13:33:05.039Z,22.68
2022-09-03T13:36:12.600Z,22.75
2022-09-03T13:39:12.323Z,22.88
2022-09-03T13:42:11.136Z,23.04
2022-09-03T13:45:39.690Z,23.28
2022-09-03T13:48:58.183Z,23.28
2022-09-03T13:52:02.227Z,23.15
2022-09-03T13:54:56.276Z,23.02
2022-09-03T13:57:56.350Z,23.01
2022-09-03T14:01:10.647Z,23.11
2022-09-03T14:04:04.078Z,22.74
2022-09-03T14:07:19.758Z,22.85
2022-09-03T14:10:19.487Z,22.81
2022-09-03T14:13:19.399Z,22.60
2022-09-03T14:16:25.957Z,22.32
2022-09-03T14:19:21.693Z,22.30
2022-09-03T14:22:30.945Z,22.38
2022-09-03T14:25:27.432Z,22.43
2022-09-03T14:28:33.896Z,22.58
2022-09-03T14:31:28.392Z,22.63
2022-09-03T14:34:31.631Z,22.52
2022-09-03T14:37:56.056Z,22.68
2022-09-03T14:40:57.275Z,22.48
2022-09-03T14:44:07.330Z,22.43
2022-09-03T14:47:07.087Z,22.64
2022-09-03T14:50:14.205Z,22.42
2022-09-03T14:53:20.377Z,22.26
2022-09-03T14:56:46.848Z,22.28
2022-09-03T15:00:18.265Z,22.08
2022-09-03T15:03:29.154Z,22.07
2022-09-03T15:06:57.981Z,21.94
2022-09-03T15:10:04.086Z,21.80
2022-09-03T15:13:15.064Z,21.77
2022-09-03T15:16:28.550Z,21.73
2022-09-03T15:19:43.769Z,21.68
2022-09-03T15:22:58.081Z,21.83
2022-09-03T15:26:04.144Z,21.77
2022-09-03T15:29:29.189Z,21.59
2022-09-03T15:32:31.535Z,21.48
2022-09-03T15:35:50.067Z,21.47
2022-09-03T15:39:00.850Z,21.31
2022-09-03T15:41:58.047Z,21.04
2022-09-03T15:44:56.587Z,21.17
2022-09-03T15:47:50.900Z,21.21
2022-09-03T15:50:52.896Z,20.91
2022-09-03T15:53:51.435Z,21.03
2022-09-03T15:57:14.090Z,21.01
2022-09-03T16:00:07.820Z,20.98
2022-09-03T16:03:23.734Z,20.76
2022-09-03T16:06:38.619Z,20.88
2022-09-03T16:10:25.988Z,20.94
2022-09-03T16:13:34.757Z,20.82
2022-09-03T16:16:44.202Z,20.71
2022-09-03T16:19:51.518Z,20.64
2022-09-03T16:22:49.654Z,20.63
2022-09-03T16:25:55.880Z,20.38
2022-09-03T16:28:58.677Z,20.20
2022-09-03T16:32:04.771Z,20.08
2022-09-03T16:35:16.495Z,19.93
2022-09-03T16:38:11.069Z,19.86
2022-09-03T16:41:19.697Z,19.83
2022-09-03T16:44:37.271Z,19.86
2022-09-03T16:47:44.209Z,19.81
2022-09-03T16:50:48.326Z,19.79
2022-09-03T16:54:06.194Z,19.67
2022-09-03T16:57:22.289Z,19.70
2022-09-03T17:00:15.336Z,19.50
2022-09-03T17:03:26.280Z,19.39
2022-09-03T17:06:31.281Z,19.51
2022-09-03T17:09:43.258Z,19.38
2022-09-03T17:12:40.220Z,19.48
2022-09-03T17:15:53.491Z,19.43
2022-09-03T17:19:10.439Z,19.43
2022-09-03T17:22:42.259Z,19.29
2022-09-03T17:26:02.062Z,19.27
2022-09-03T17:29:30.087Z,19.30
2022-09-03T17:32:46.502Z,19.21
2022-09-03T17:35:39.463Z,19.15
2022-09-03T17:39:08.778Z,19.16
2022-09-03T17:42:20.560Z,19.12
2022-09-03T17:45:18.270Z,19.02
2022-09-03T17:48:51.659Z,18.87
2022-09-03T17:51:48.255Z,18.87
2022-09-03T17:54:45.703Z,18.80
2022-09-03T17:57:47.811Z,18.71
2022-09-03T18:00:40.865Z,18.72
2022-09-03T18:04:05.463Z,18.51
2022-09-03T18:07:08.724Z,18.40
2022-09-03T18:10:31.386Z,17.92
2022-09-03T18:13:40.730Z,18.33
2022-09-03T18:16:32.135Z,18.14
2022-09-03T18:19:33.492Z,17.91
2022-09-03T18:22:49.072Z,18.11
2022-09-03T18:25:58.431Z,18.07
2022-09-03T18:29:18.128Z,18.06
2022-09-03T18:32:24.706Z,17.86
2022-09-03T18:35:30.737Z,17.83
2022-09-03T18:38:45.828Z,17.82
2022-09-03T18:42:21.274Z,17.82
2022-09-03T18:46:17.640Z,17.84
2022-09-03T18:49:21.269Z,17.75
2022-09-03T18:52:51.182Z,17.78
2022-09-03T18:56:03.577Z,17.66
2022-09-03T18:59:45.090Z,17.63
2022-09-03T19:02:54.585Z,17.44
2022-09-03T19:14:06.806Z,17.36
2022-09-03T19:17:22.624Z,17.29
2022-09-03T19:20:44.292Z,17.08
2022-09-03T19:23:52.678Z,17.17
2022-09-03T19:27:55.617Z,17.20
2022-09-03T19:31:08.254Z,17.11
2022-09-03T19:35:08.243Z,17.12
2022-09-03T19:38:36.141Z,17.14
2022-09-03T19:42:02.273Z,17.18
2022-09-03T19:45:39.451Z,17.12
2022-09-03T19:49:06.503Z,17.00
2022-09-03T19:52:53.489Z,16.99
2022-09-03T19:56:14.733Z,16.86
2022-09-03T19:59:36.077Z,16.79
2022-09-03T20:02:43.321Z,16.77
2022-09-03T20:05:50.913Z,16.53
2022-09-03T20:08:57.988Z,16.50
2022-09-03T20:11:48.321Z,16.65
2022-09-03T20:14:37.337Z,16.45
2022-09-03T20:17:41.629Z,16.61
2022-09-03T20:21:04.640Z,16.62
2022-09-03T20:24:06.841Z,16.55
2022-09-03T20:27:09.526Z,16.47
2022-09-03T20:30:03.374Z,16.44
2022-09-03T20:33:05.991Z,16.47
2022-09-03T20:36:05.188Z,16.14
2022-09-03T20:39:18.724Z,16.46
2022-09-03T20:42:36.344Z,16.39
2022-09-03T20:45:32.508Z,16.29
2022-09-03T20:48:36.974Z,16.21
2022-09-03T20:51:31.402Z,16.17
2022-09-03T20:54:37.199Z,16.29
2022-09-03T20:58:09.349Z,16.27
2022-09-03T21:01:23.415Z,16.09
2022-09-03T21:04:17.289Z,16.21
2022-09-03T21:07:40.114Z,16.15
2022-09-03T21:10:48.871Z,16.17
2022-09-03T21:13:54.756Z,16.20
2022-09-03T21:17:06.733Z,16.24
2022-09-03T21:20:23.452Z,16.20
2022-09-03T21:23:23.000Z,16.14
2022-09-03T21:26:16.268Z,15.98
2022-09-03T21:29:35.112Z,16.06
2022-09-03T21:32:33.630Z,16.01
2022-09-03T21:35:33.507Z,16.18
2022-09-03T21:38:25.184Z,16.28
2022-09-03T21:41:34.780Z,16.10
2022-09-03T21:44:45.394Z,16.02
2022-09-03T21:47:38.099Z,16.02
2022-09-03T21:50:56.867Z,15.92
2022-09-03T21:54:09.213Z,15.91
2022-09-03T21:57:12.625Z,15.95
2022-09-03T22:00:29.805Z,15.86
2022-09-03T22:03:17.469Z,15.76
2022-09-03T22:06:19.123Z,15.85
2022-09-03T22:09:15.854Z,15.68
2022-09-03T22:12:28.423Z,15.78
2022-09-03T22:15:18.529Z,15.75
2022-09-03T22:18:16.295Z,15.70
2022-09-03T22:21:23.641Z,15.67
2022-09-03T22:24:22.458Z,15.56
2022-09-03T22:27:26.617Z,15.58
2022-09-03T22:30:20.110Z,15.54
2022-09-03T22:33:32.762Z,15.59
2022-09-03T22:36:42.466Z,15.57
2022-09-03T22:39:39.818Z,15.53
2022-09-03T22:42:36.109Z,15.54
2022-09-03T22:45:33.782Z,15.52
2022-09-03T22:48:40.488Z,15.46
2022-09-03T22:51:33.702Z,15.45
2022-09-03T22:54:47.594Z,15.46
2022-09-03T22:57:39.800Z,15.27
2022-09-03T23:00:29.632Z,15.45
2022-09-03T23:03:25.549Z,15.34
2022-09-03T23:06:22.193Z,15.36
2022-09-03T23:09:17.565Z,15.31
2022-09-03T23:12:15.394Z,15.26
2022-09-03T23:15:07.026Z,15.32
2022-09-03T23:18:09.164Z,15.28
2022-09-03T23:21:11.536Z,15.22
2022-09-03T23:24:08.105Z,15.16
2022-09-03T23:26:56.014Z,15.31
2022-09-03T23:29:52.267Z,15.33
2022-09-03T23:32:39.966Z,15.11
2022-09-03T23:35:54.327Z,15.32
2022-09-03T23:39:10.732Z,15.45
2022-09-03T23:42:16.348Z,15.47
2022-09-03T23:45:19.061Z,15.46
2022-09-03T23:48:09.765Z,15.02
2022-09-03T23:51:06.231Z,15.60
2022-09-03T23:54:02.993Z,15.45
2022-09-03T23:57:05.525Z,15.63
